createdAt,value
2018-09-06T01:17:12.003Z,74.65
2018-09-06T01:20:37.820Z,74.52
2018-09-06T03:23:31.785Z,78.42
2018-09-06T03:29:00.565Z,76.81
2018-09-06T03:31:38.372Z,76.26
2018-09-06T03:42:27.332Z,77.86
2018-09-06T03:45:12.170Z,77.17
2018-09-06T03:47:52.736Z,75.70
2018-09-06T04:01:47.889Z,76.67
2018-09-06T04:07:01.829Z,76.31
2018-09-06T04:26:37.171Z,76.27
2018-09-06T04:40:09.304Z,77.46
2018-09-06T04:42:46.434Z,77.70
2018-09-06T04:45:27.586Z,77.85
2018-09-06T04:48:08.967Z,78.33
2018-09-06T04:50:49.115Z,78.50
2018-09-06T04:56:03.917Z,77.74
2018-09-06T04:58:45.442Z,78.87
2018-09-06T05:01:21.186Z,78.23
2018-09-06T05:04:03.149Z,78.55
2018-09-06T05:17:38.472Z,75.85
2018-09-06T05:20:59.529Z,76.86
2018-09-06T06:26:40.898Z,74.84
2018-09-06T06:40:19.723Z,74.97
2018-09-06T06:42:58.431Z,75.54
2018-09-06T06:51:29.886Z,74.84
2018-09-06T11:04:28.173Z,40.91
2018-09-06T12:16:44.489Z,41.26
2018-09-06T13:28:00.250Z,36.39
2018-09-06T13:30:28.531Z,36.32
2018-09-06T13:32:58.981Z,36.69
2018-09-06T13:35:28.442Z,35.83
2018-09-06T13:37:56.770Z,37.37
2018-09-06T13:40:25.089Z,35.87
2018-09-06T13:42:53.479Z,36.71
2018-09-06T13:45:21.883Z,36.55
2018-09-06T13:47:50.198Z,37.02
2018-09-06T13:50:18.538Z,37.58
2018-09-06T13:52:46.918Z,37.70
2018-09-06T13:55:15.251Z,37.16
2018-09-06T13:57:43.596Z,36.39
2018-09-06T14:00:11.988Z,38.32
2018-09-06T14:02:40.297Z,40.02
2018-09-06T14:05:10.262Z,38.67
2018-09-06T14:07:38.498Z,40.21
2018-09-06T14:10:06.884Z,38.83
2018-09-06T14:12:35.164Z,40.21
2018-09-06T14:16:47.242Z,40.32
2018-09-06T16:16:40.256Z,42.08
2018-09-06T16:19:09.339Z,41.76
2018-09-06T17:13:07.198Z,55.92
2018-09-06T17:15:35.531Z,55.85
2018-09-06T17:18:03.871Z,56.87
2018-09-06T17:20:32.285Z,57.36
2018-09-06T18:20:21.202Z,65.00
2018-09-06T18:22:49.786Z,64.85
2018-09-06T18:25:22.619Z,65.41
2018-09-06T18:27:50.943Z,64.36
2018-09-06T18:30:19.382Z,64.78
2018-09-06T18:32:47.788Z,65.51
2018-09-06T18:35:16.558Z,64.57
2018-09-06T18:37:44.853Z,66.18
2018-09-06T18:40:13.222Z,65.43
2018-09-06T18:42:41.550Z,66.69
2018-09-06T18:45:09.924Z,66.54
2018-09-06T18:47:42.663Z,67.36
2018-09-06T18:50:22.442Z,66.68
2018-09-06T18:52:50.727Z,66.15
2018-09-06T18:55:19.038Z,67.24
2018-09-06T18:57:47.330Z,67.61
2018-09-06T19:00:15.677Z,67.73
2018-09-06T19:02:43.939Z,68.07
2018-09-06T19:05:12.311Z,67.77
2018-09-06T19:07:40.596Z,67.94
2018-09-06T19:10:08.894Z,68.55
2018-09-06T21:13:23.174Z,74.28
2018-09-06T22:13:30.699Z,73.85
2018-09-06T22:19:11.004Z,74.37
2018-09-06T22:21:46.123Z,74.50
2018-09-06T22:24:14.496Z,74.61
